sensor_id;sensor_type;location;lat;lon;timestamp;P1;durP1;ratioP1;P2;durP2;ratioP2
26337;SDS011;14050;50.950;4.460;2023-03-01T00:02:06;14.38;;;9.55;;
26337;SDS011;14050;50.950;4.460;2023-03-01T00:07:07;11.55;;;8.85;;
26337;SDS011;14050;50.950;4.460;2023-03-01T00:12:07;12.75;;;9.05;;
26337;SDS011;14050;50.950;4.460;2023-03-01T00:17:07;14.77;;;9.10;;
26337;SDS011;14050;50.950;4.460;2023-03-01T00:22:07;14.55;;;9.98;;
26337;SDS011;14050;50.950;4.460;2023-03-01T00:27:08;16.35;;;9.13;;
26337;SDS011;14050;50.950;4.460;2023-03-01T00:32:08;12.45;;;9.70;;
26337;SDS011;14050;50.950;4.460;2023-03-01T00:37:08;16.08;;;10.82;;
26337;SDS011;14050;50.950;4.460;2023-03-01T00:42:08;14.25;;;9.30;;
26337;SDS011;14050;50.950;4.460;2023-03-01T00:47:08;16.45;;;10.43;;
26337;SDS011;14050;50.950;4.460;2023-03-01T00:52:09;11.50;;;9.10;;
26337;SDS011;14050;50.950;4.460;2023-03-01T00:57:09;15.23;;;9.88;;
26337;SDS011;14050;50.950;4.460;2023-03-01T01:02:09;14.52;;;9.07;;
26337;SDS011;14050;50.950;4.460;2023-03-01T01:07:09;14.40;;;10.32;;
26337;SDS011;14050;50.950;4.460;2023-03-01T01:12:10;13.60;;;9.27;;
26337;SDS011;14050;50.950;4.460;2023-03-01T01:17:10;12.70;;;9.43;;
26337;SDS011;14050;50.950;4.460;2023-03-01T01:22:10;14.98;;;9.98;;
26337;SDS011;14050;50.950;4.460;2023-03-01T01:27:10;17.70;;;8.80;;
26337;SDS011;14050;50.950;4.460;2023-03-01T01:32:12;13.30;;;9.98;;
26337;SDS011;14050;50.950;4.460;2023-03-01T01:37:12;16.27;;;9.18;;
26337;SDS011;14050;50.950;4.460;2023-03-01T01:42:16;14.15;;;9.57;;
26337;SDS011;14050;50.950;4.460;2023-03-01T01:47:17;12.98;;;9.65;;
26337;SDS011;14050;50.950;4.460;2023-03-01T01:57:30;13.95;;;9.55;;
26337;SDS011;14050;50.950;4.460;2023-03-01T02:02:32;16.38;;;9.55;;
26337;SDS011;14050;50.950;4.460;2023-03-01T02:07:34;14.88;;;9.23;;
26337;SDS011;14050;50.950;4.460;2023-03-01T02:12:34;14.95;;;9.85;;
26337;SDS011;14050;50.950;4.460;2023-03-01T02:17:35;14.77;;;10.10;;
26337;SDS011;14050;50.950;4.460;2023-03-01T02:22:36;12.93;;;9.50;;
26337;SDS011;14050;50.950;4.460;2023-03-01T02:32:49;15.65;;;10.90;;
26337;SDS011;14050;50.950;4.460;2023-03-01T02:37:49;15.02;;;10.68;;
26337;SDS011;14050;50.950;4.460;2023-03-01T02:42:51;13.07;;;9.68;;
26337;SDS011;14050;50.950;4.460;2023-03-01T02:47:56;15.63;;;10.35;;
26337;SDS011;14050;50.950;4.460;2023-03-01T02:58:02;14.38;;;10.68;;
26337;SDS011;14050;50.950;4.460;2023-03-01T03:03:04;20.00;;;11.50;;
26337;SDS011;14050;50.950;4.460;2023-03-01T03:08:04;19.75;;;11.70;;
26337;SDS011;14050;50.950;4.460;2023-03-01T03:13:11;19.23;;;10.82;;
26337;SDS011;14050;50.950;4.460;2023-03-01T03:18:12;15.00;;;11.05;;
26337;SDS011;14050;50.950;4.460;2023-03-01T03:23:13;15.95;;;10.63;;
26337;SDS011;14050;50.950;4.460;2023-03-01T03:28:13;17.25;;;10.77;;
26337;SDS011;14050;50.950;4.460;2023-03-01T03:33:15;16.55;;;11.05;;
26337;SDS011;14050;50.950;4.460;2023-03-01T03:38:17;17.00;;;10.85;;
26337;SDS011;14050;50.950;4.460;2023-03-01T03:43:21;17.38;;;11.18;;
26337;SDS011;14050;50.950;4.460;2023-03-01T03:48:22;17.48;;;11.13;;
26337;SDS011;14050;50.950;4.460;2023-03-01T03:53:23;15.07;;;10.90;;
26337;SDS011;14050;50.950;4.460;2023-03-01T03:58:25;19.92;;;10.80;;
26337;SDS011;14050;50.950;4.460;2023-03-01T04:03:25;17.38;;;10.98;;
26337;SDS011;14050;50.950;4.460;2023-03-01T04:08:26;16.73;;;10.73;;
26337;SDS011;14050;50.950;4.460;2023-03-01T04:13:27;16.02;;;11.05;;
26337;SDS011;14050;50.950;4.460;2023-03-01T04:18:27;16.30;;;11.00;;
26337;SDS011;14050;50.950;4.460;2023-03-01T04:23:27;14.65;;;10.85;;
26337;SDS011;14050;50.950;4.460;2023-03-01T04:33:28;13.65;;;10.57;;
26337;SDS011;14050;50.950;4.460;2023-03-01T04:38:28;17.58;;;11.10;;
26337;SDS011;14050;50.950;4.460;2023-03-01T04:43:28;16.63;;;10.45;;
26337;SDS011;14050;50.950;4.460;2023-03-01T04:48:29;18.58;;;10.82;;
26337;SDS011;14050;50.950;4.460;2023-03-01T04:53:30;17.73;;;11.30;;
26337;SDS011;14050;50.950;4.460;2023-03-01T04:58:30;19.17;;;11.55;;
26337;SDS011;14050;50.950;4.460;2023-03-01T05:03:30;13.52;;;10.27;;
26337;SDS011;14050;50.950;4.460;2023-03-01T05:08:30;14.27;;;10.65;;
26337;SDS011;14050;50.950;4.460;2023-03-01T05:13:34;19.33;;;12.38;;
26337;SDS011;14050;50.950;4.460;2023-03-01T05:18:36;14.60;;;10.23;;
26337;SDS011;14050;50.950;4.460;2023-03-01T05:23:36;16.20;;;10.85;;
26337;SDS011;14050;50.950;4.460;2023-03-01T05:28:37;16.90;;;10.23;;
26337;SDS011;14050;50.950;4.460;2023-03-01T05:33:38;19.13;;;10.45;;
26337;SDS011;14050;50.950;4.460;2023-03-01T05:38:39;18.95;;;10.35;;
26337;SDS011;14050;50.950;4.460;2023-03-01T05:43:39;16.30;;;11.52;;
26337;SDS011;14050;50.950;4.460;2023-03-01T05:48:43;15.13;;;10.88;;
26337;SDS011;14050;50.950;4.460;2023-03-01T05:53:43;16.20;;;10.68;;
26337;SDS011;14050;50.950;4.460;2023-03-01T05:58:43;16.25;;;10.60;;
26337;SDS011;14050;50.950;4.460;2023-03-01T06:03:44;18.20;;;12.30;;
26337;SDS011;14050;50.950;4.460;2023-03-01T06:08:44;18.30;;;10.73;;
26337;SDS011;14050;50.950;4.460;2023-03-01T06:13:44;17.38;;;10.73;;
26337;SDS011;14050;50.950;4.460;2023-03-01T06:18:44;15.82;;;10.10;;
26337;SDS011;14050;50.950;4.460;2023-03-01T06:23:45;14.13;;;10.77;;
26337;SDS011;14050;50.950;4.460;2023-03-01T06:28:45;17.33;;;11.35;;
26337;SDS011;14050;50.950;4.460;2023-03-01T06:33:46;17.50;;;11.32;;
26337;SDS011;14050;50.950;4.460;2023-03-01T06:38:46;29.63;;;18.60;;
26337;SDS011;14050;50.950;4.460;2023-03-01T06:43:46;34.45;;;23.05;;
26337;SDS011;14050;50.950;4.460;2023-03-01T06:48:46;18.02;;;11.68;;
26337;SDS011;14050;50.950;4.460;2023-03-01T06:53:46;17.60;;;11.68;;
26337;SDS011;14050;50.950;4.460;2023-03-01T06:58:47;19.05;;;11.38;;
26337;SDS011;14050;50.950;4.460;2023-03-01T07:03:47;15.65;;;10.73;;
26337;SDS011;14050;50.950;4.460;2023-03-01T07:08:47;21.13;;;12.25;;
26337;SDS011;14050;50.950;4.460;2023-03-01T07:13:47;15.43;;;10.98;;
26337;SDS011;14050;50.950;4.460;2023-03-01T07:18:48;16.67;;;11.70;;
26337;SDS011;14050;50.950;4.460;2023-03-01T07:23:48;19.40;;;11.10;;
26337;SDS011;14050;50.950;4.460;2023-03-01T07:28:48;17.95;;;12.05;;
26337;SDS011;14050;50.950;4.460;2023-03-01T07:33:49;16.13;;;11.05;;
26337;SDS011;14050;50.950;4.460;2023-03-01T07:38:49;16.48;;;10.60;;
26337;SDS011;14050;50.950;4.460;2023-03-01T07:43:49;18.10;;;11.30;;
26337;SDS011;14050;50.950;4.460;2023-03-01T07:48:50;14.52;;;10.68;;
26337;SDS011;14050;50.950;4.460;2023-03-01T07:53:50;16.08;;;11.63;;
26337;SDS011;14050;50.950;4.460;2023-03-01T07:58:50;23.15;;;11.75;;
26337;SDS011;14050;50.950;4.460;2023-03-01T08:03:50;17.50;;;11.97;;
26337;SDS011;14050;50.950;4.460;2023-03-01T08:08:51;21.17;;;10.80;;
26337;SDS011;14050;50.950;4.460;2023-03-01T08:13:51;16.88;;;11.80;;
26337;SDS011;14050;50.950;4.460;2023-03-01T08:18:51;22.52;;;12.13;;
26337;SDS011;14050;50.950;4.460;2023-03-01T08:23:51;21.38;;;12.18;;
26337;SDS011;14050;50.950;4.460;2023-03-01T08:28:51;18.98;;;12.07;;
26337;SDS011;14050;50.950;4.460;2023-03-01T08:33:53;20.23;;;11.63;;
26337;SDS011;14050;50.950;4.460;2023-03-01T08:38:56;21.45;;;12.27;;
26337;SDS011;14050;50.950;4.460;2023-03-01T08:43:56;27.15;;;12.73;;
26337;SDS011;14050;50.950;4.460;2023-03-01T08:49:00;14.82;;;11.18;;
26337;SDS011;14050;50.950;4.460;2023-03-01T08:54:00;21.95;;;11.80;;
26337;SDS011;14050;50.950;4.460;2023-03-01T08:59:00;16.50;;;12.20;;
26337;SDS011;14050;50.950;4.460;2023-03-01T09:04:00;16.88;;;11.98;;
26337;SDS011;14050;50.950;4.460;2023-03-01T09:09:01;22.20;;;12.50;;
26337;SDS011;14050;50.950;4.460;2023-03-01T09:14:04;16.10;;;11.43;;
26337;SDS011;14050;50.950;4.460;2023-03-01T09:19:05;18.77;;;12.05;;
26337;SDS011;14050;50.950;4.460;2023-03-01T09:24:06;23.48;;;17.23;;
26337;SDS011;14050;50.950;4.460;2023-03-01T09:29:12;75.57;;;37.33;;
26337;SDS011;14050;50.950;4.460;2023-03-01T09:34:12;26.92;;;17.08;;
26337;SDS011;14050;50.950;4.460;2023-03-01T09:39:16;23.55;;;17.42;;
26337;SDS011;14050;50.950;4.460;2023-03-01T09:49:25;17.70;;;12.18;;
26337;SDS011;14050;50.950;4.460;2023-03-01T09:54:26;18.42;;;12.18;;
26337;SDS011;14050;50.950;4.460;2023-03-01T09:59:28;21.05;;;12.25;;
26337;SDS011;14050;50.950;4.460;2023-03-01T10:04:47;19.38;;;12.75;;
26337;SDS011;14050;50.950;4.460;2023-03-01T10:09:48;24.48;;;14.07;;
26337;SDS011;14050;50.950;4.460;2023-03-01T10:14:51;18.83;;;12.77;;
26337;SDS011;14050;50.950;4.460;2023-03-01T10:19:54;17.75;;;11.43;;
26337;SDS011;14050;50.950;4.460;2023-03-01T10:24:56;14.40;;;10.73;;
26337;SDS011;14050;50.950;4.460;2023-03-01T10:35:19;21.90;;;11.02;;
26337;SDS011;14050;50.950;4.460;2023-03-01T10:40:20;20.23;;;11.27;;
26337;SDS011;14050;50.950;4.460;2023-03-01T10:50:25;18.73;;;11.27;;
26337;SDS011;14050;50.950;4.460;2023-03-01T10:55:35;18.67;;;10.77;;
26337;SDS011;14050;50.950;4.460;2023-03-01T11:00:45;19.08;;;11.18;;
26337;SDS011;14050;50.950;4.460;2023-03-01T11:05:56;16.05;;;10.07;;
26337;SDS011;14050;50.950;4.460;2023-03-01T11:11:06;17.85;;;10.25;;
26337;SDS011;14050;50.950;4.460;2023-03-01T11:16:07;16.85;;;10.32;;
26337;SDS011;14050;50.950;4.460;2023-03-01T11:21:09;15.18;;;9.95;;
26337;SDS011;14050;50.950;4.460;2023-03-01T11:26:10;19.40;;;12.57;;
26337;SDS011;14050;50.950;4.460;2023-03-01T11:31:13;20.83;;;11.55;;
26337;SDS011;14050;50.950;4.460;2023-03-01T11:41:20;15.07;;;8.52;;
26337;SDS011;14050;50.950;4.460;2023-03-01T11:51:38;17.35;;;9.70;;
26337;SDS011;14050;50.950;4.460;2023-03-01T11:56:43;17.13;;;9.82;;
26337;SDS011;14050;50.950;4.460;2023-03-01T12:01:49;14.18;;;9.05;;
26337;SDS011;14050;50.950;4.460;2023-03-01T12:06:57;14.80;;;10.35;;
26337;SDS011;14050;50.950;4.460;2023-03-01T12:17:18;13.48;;;9.43;;
26337;SDS011;14050;50.950;4.460;2023-03-01T12:22:31;15.88;;;9.93;;
26337;SDS011;14050;50.950;4.460;2023-03-01T12:38:06;14.15;;;9.77;;
26337;SDS011;14050;50.950;4.460;2023-03-01T12:43:22;17.42;;;9.55;;
26337;SDS011;14050;50.950;4.460;2023-03-01T12:53:39;14.98;;;9.32;;
26337;SDS011;14050;50.950;4.460;2023-03-01T12:58:41;14.23;;;8.93;;
26337;SDS011;14050;50.950;4.460;2023-03-01T13:08:56;16.50;;;9.15;;
26337;SDS011;14050;50.950;4.460;2023-03-01T13:24:38;12.73;;;9.20;;
26337;SDS011;14050;50.950;4.460;2023-03-01T13:29:46;12.40;;;8.57;;
26337;SDS011;14050;50.950;4.460;2023-03-01T13:34:47;12.15;;;8.88;;
26337;SDS011;14050;50.950;4.460;2023-03-01T13:39:48;15.85;;;9.20;;
26337;SDS011;14050;50.950;4.460;2023-03-01T13:44:51;14.32;;;9.43;;
26337;SDS011;14050;50.950;4.460;2023-03-01T13:50:01;12.13;;;9.07;;
26337;SDS011;14050;50.950;4.460;2023-03-01T13:55:06;12.38;;;8.55;;
26337;SDS011;14050;50.950;4.460;2023-03-01T14:00:27;12.90;;;9.00;;
26337;SDS011;14050;50.950;4.460;2023-03-01T14:05:28;16.00;;;8.77;;
26337;SDS011;14050;50.950;4.460;2023-03-01T14:10:31;13.70;;;8.90;;
26337;SDS011;14050;50.950;4.460;2023-03-01T14:15:39;14.70;;;8.68;;
26337;SDS011;14050;50.950;4.460;2023-03-01T14:20:42;13.70;;;9.75;;
26337;SDS011;14050;50.950;4.460;2023-03-01T14:26:01;13.68;;;9.55;;
26337;SDS011;14050;50.950;4.460;2023-03-01T14:36:05;19.05;;;10.43;;
26337;SDS011;14050;50.950;4.460;2023-03-01T14:46:06;14.02;;;9.43;;
26337;SDS011;14050;50.950;4.460;2023-03-01T14:51:06;12.47;;;9.00;;
26337;SDS011;14050;50.950;4.460;2023-03-01T14:56:12;16.58;;;8.98;;
26337;SDS011;14050;50.950;4.460;2023-03-01T15:01:13;12.00;;;8.60;;
26337;SDS011;14050;50.950;4.460;2023-03-01T15:06:15;14.73;;;9.50;;
26337;SDS011;14050;50.950;4.460;2023-03-01T15:11:27;12.65;;;9.48;;
26337;SDS011;14050;50.950;4.460;2023-03-01T15:16:31;17.00;;;9.27;;
26337;SDS011;14050;50.950;4.460;2023-03-01T15:26:37;13.63;;;10.38;;
26337;SDS011;14050;50.950;4.460;2023-03-01T15:31:38;13.43;;;9.48;;
26337;SDS011;14050;50.950;4.460;2023-03-01T15:41:46;26.08;;;14.57;;
26337;SDS011;14050;50.950;4.460;2023-03-01T15:46:46;15.77;;;9.52;;
26337;SDS011;14050;50.950;4.460;2023-03-01T15:51:48;15.43;;;13.23;;
26337;SDS011;14050;50.950;4.460;2023-03-01T15:56:48;15.07;;;9.20;;
26337;SDS011;14050;50.950;4.460;2023-03-01T16:01:49;13.20;;;9.75;;
26337;SDS011;14050;50.950;4.460;2023-03-01T16:06:50;13.73;;;7.93;;
26337;SDS011;14050;50.950;4.460;2023-03-01T16:11:54;12.85;;;8.27;;
26337;SDS011;14050;50.950;4.460;2023-03-01T16:16:54;12.50;;;7.47;;
26337;SDS011;14050;50.950;4.460;2023-03-01T16:21:54;16.40;;;7.63;;
26337;SDS011;14050;50.950;4.460;2023-03-01T16:26:55;14.03;;;8.43;;
26337;SDS011;14050;50.950;4.460;2023-03-01T16:31:55;16.17;;;7.88;;
26337;SDS011;14050;50.950;4.460;2023-03-01T16:36:55;14.30;;;8.65;;
26337;SDS011;14050;50.950;4.460;2023-03-01T16:41:55;14.13;;;8.15;;
26337;SDS011;14050;50.950;4.460;2023-03-01T16:46:56;11.48;;;7.70;;
26337;SDS011;14050;50.950;4.460;2023-03-01T16:51:56;13.45;;;8.00;;
26337;SDS011;14050;50.950;4.460;2023-03-01T16:56:56;14.07;;;8.38;;
26337;SDS011;14050;50.950;4.460;2023-03-01T17:01:56;12.63;;;7.93;;
26337;SDS011;14050;50.950;4.460;2023-03-01T17:06:56;18.73;;;8.25;;
26337;SDS011;14050;50.950;4.460;2023-03-01T17:11:57;15.43;;;10.07;;
26337;SDS011;14050;50.950;4.460;2023-03-01T17:16:57;17.00;;;9.40;;
26337;SDS011;14050;50.950;4.460;2023-03-01T17:21:58;14.82;;;10.38;;
26337;SDS011;14050;50.950;4.460;2023-03-01T17:27:00;22.35;;;15.18;;
26337;SDS011;14050;50.950;4.460;2023-03-01T17:32:00;13.60;;;9.07;;
26337;SDS011;14050;50.950;4.460;2023-03-01T17:37:00;14.88;;;8.10;;
26337;SDS011;14050;50.950;4.460;2023-03-01T17:42:01;13.90;;;8.85;;
26337;SDS011;14050;50.950;4.460;2023-03-01T17:47:02;29.85;;;10.13;;
26337;SDS011;14050;50.950;4.460;2023-03-01T17:52:03;13.23;;;8.00;;
26337;SDS011;14050;50.950;4.460;2023-03-01T17:57:03;14.32;;;8.13;;
26337;SDS011;14050;50.950;4.460;2023-03-01T18:02:03;17.42;;;10.00;;
26337;SDS011;14050;50.950;4.460;2023-03-01T18:07:04;14.93;;;9.60;;
26337;SDS011;14050;50.950;4.460;2023-03-01T18:12:05;19.77;;;12.05;;
26337;SDS011;14050;50.950;4.460;2023-03-01T18:17:06;20.13;;;10.52;;
26337;SDS011;14050;50.950;4.460;2023-03-01T18:22:10;14.68;;;10.35;;
26337;SDS011;14050;50.950;4.460;2023-03-01T18:27:11;23.00;;;10.27;;
26337;SDS011;14050;50.950;4.460;2023-03-01T18:32:11;18.23;;;11.25;;
26337;SDS011;14050;50.950;4.460;2023-03-01T18:37:11;22.15;;;13.90;;
26337;SDS011;14050;50.950;4.460;2023-03-01T18:42:11;20.85;;;14.32;;
26337;SDS011;14050;50.950;4.460;2023-03-01T18:47:13;18.33;;;11.20;;
26337;SDS011;14050;50.950;4.460;2023-03-01T18:52:14;17.23;;;10.38;;
26337;SDS011;14050;50.950;4.460;2023-03-01T18:57:14;16.55;;;10.27;;
26337;SDS011;14050;50.950;4.460;2023-03-01T19:02:14;18.55;;;12.15;;
26337;SDS011;14050;50.950;4.460;2023-03-01T19:07:14;19.55;;;11.73;;
26337;SDS011;14050;50.950;4.460;2023-03-01T19:12:14;19.25;;;13.60;;
26337;SDS011;14050;50.950;4.460;2023-03-01T19:17:15;28.48;;;18.77;;
26337;SDS011;14050;50.950;4.460;2023-03-01T19:22:15;33.63;;;17.58;;
26337;SDS011;14050;50.950;4.460;2023-03-01T19:27:15;23.98;;;16.42;;
26337;SDS011;14050;50.950;4.460;2023-03-01T19:32:16;28.08;;;16.95;;
26337;SDS011;14050;50.950;4.460;2023-03-01T19:37:16;22.63;;;14.63;;
26337;SDS011;14050;50.950;4.460;2023-03-01T19:42:17;23.13;;;13.40;;
26337;SDS011;14050;50.950;4.460;2023-03-01T19:47:17;23.50;;;15.15;;
26337;SDS011;14050;50.950;4.460;2023-03-01T19:52:18;24.10;;;14.70;;
26337;SDS011;14050;50.950;4.460;2023-03-01T19:57:18;23.13;;;13.48;;
26337;SDS011;14050;50.950;4.460;2023-03-01T20:02:19;20.45;;;13.65;;
26337;SDS011;14050;50.950;4.460;2023-03-01T20:07:19;23.58;;;15.98;;
26337;SDS011;14050;50.950;4.460;2023-03-01T20:12:20;23.52;;;14.45;;
26337;SDS011;14050;50.950;4.460;2023-03-01T20:17:20;20.80;;;14.20;;
26337;SDS011;14050;50.950;4.460;2023-03-01T20:22:21;25.38;;;15.55;;
26337;SDS011;14050;50.950;4.460;2023-03-01T20:27:21;20.48;;;14.73;;
26337;SDS011;14050;50.950;4.460;2023-03-01T20:32:21;24.08;;;14.73;;
26337;SDS011;14050;50.950;4.460;2023-03-01T20:37:21;23.80;;;15.85;;
26337;SDS011;14050;50.950;4.460;2023-03-01T20:42:22;21.17;;;15.53;;
26337;SDS011;14050;50.950;4.460;2023-03-01T20:47:22;27.93;;;16.63;;
26337;SDS011;14050;50.950;4.460;2023-03-01T20:52:22;26.35;;;16.00;;
26337;SDS011;14050;50.950;4.460;2023-03-01T20:57:23;25.30;;;15.80;;
26337;SDS011;14050;50.950;4.460;2023-03-01T21:02:23;28.15;;;16.83;;
26337;SDS011;14050;50.950;4.460;2023-03-01T21:07:23;29.02;;;17.33;;
26337;SDS011;14050;50.950;4.460;2023-03-01T21:12:24;26.27;;;16.80;;
26337;SDS011;14050;50.950;4.460;2023-03-01T21:17:24;28.65;;;18.30;;
26337;SDS011;14050;50.950;4.460;2023-03-01T21:22:24;31.85;;;18.35;;
26337;SDS011;14050;50.950;4.460;2023-03-01T21:27:24;29.35;;;19.27;;
26337;SDS011;14050;50.950;4.460;2023-03-01T21:32:24;31.40;;;19.77;;
26337;SDS011;14050;50.950;4.460;2023-03-01T21:37:25;26.40;;;18.50;;
26337;SDS011;14050;50.950;4.460;2023-03-01T21:42:28;27.20;;;18.67;;
26337;SDS011;14050;50.950;4.460;2023-03-01T21:47:30;29.42;;;19.08;;
26337;SDS011;14050;50.950;4.460;2023-03-01T21:52:31;25.52;;;18.00;;
26337;SDS011;14050;50.950;4.460;2023-03-01T21:57:33;24.63;;;17.15;;
26337;SDS011;14050;50.950;4.460;2023-03-01T22:02:33;25.70;;;16.88;;
26337;SDS011;14050;50.950;4.460;2023-03-01T22:07:33;26.30;;;17.17;;
26337;SDS011;14050;50.950;4.460;2023-03-01T22:12:34;26.17;;;17.70;;
26337;SDS011;14050;50.950;4.460;2023-03-01T22:17:35;24.80;;;17.55;;
26337;SDS011;14050;50.950;4.460;2023-03-01T22:22:35;27.98;;;18.23;;
26337;SDS011;14050;50.950;4.460;2023-03-01T22:27:35;29.48;;;16.92;;
26337;SDS011;14050;50.950;4.460;2023-03-01T22:32:40;27.30;;;18.17;;
26337;SDS011;14050;50.950;4.460;2023-03-01T22:37:41;24.80;;;17.88;;
26337;SDS011;14050;50.950;4.460;2023-03-01T22:42:41;24.50;;;17.67;;
26337;SDS011;14050;50.950;4.460;2023-03-01T22:47:41;29.42;;;17.02;;
26337;SDS011;14050;50.950;4.460;2023-03-01T22:52:42;26.35;;;17.20;;
26337;SDS011;14050;50.950;4.460;2023-03-01T22:57:42;26.58;;;16.63;;
26337;SDS011;14050;50.950;4.460;2023-03-01T23:02:42;23.30;;;17.13;;
26337;SDS011;14050;50.950;4.460;2023-03-01T23:07:42;25.08;;;16.30;;
26337;SDS011;14050;50.950;4.460;2023-03-01T23:12:43;23.85;;;16.55;;
26337;SDS011;14050;50.950;4.460;2023-03-01T23:17:44;26.27;;;17.67;;
26337;SDS011;14050;50.950;4.460;2023-03-01T23:22:44;27.02;;;17.83;;
26337;SDS011;14050;50.950;4.460;2023-03-01T23:27:44;23.45;;;16.45;;
26337;SDS011;14050;50.950;4.460;2023-03-01T23:32:44;26.92;;;18.85;;
26337;SDS011;14050;50.950;4.460;2023-03-01T23:37:46;24.13;;;17.33;;
26337;SDS011;14050;50.950;4.460;2023-03-01T23:42:46;26.85;;;16.85;;
26337;SDS011;14050;50.950;4.460;2023-03-01T23:47:46;25.80;;;17.58;;
26337;SDS011;14050;50.950;4.460;2023-03-01T23:52:46;24.80;;;17.33;;
26337;SDS011;14050;50.950;4.460;2023-03-01T23:57:46;26.80;;;17.98;;
